Decoded Metar for YTEF (TELFER AIRPORT in _UNIDENTIFIED) (IATA:N/A) | Meteo·Mobile Aviation Weather
aviador You're here:

YTEF Decoded Metar

TELFER AIRPORT in _UNIDENTIFIED
Report Time2019-02-17 20:00:00
UTC Time2019-02-17 20:46:56
Flight Rules vfr VFR
Wind290° at 12 kt
W.Decomp.*RWY 30: 11.7 kt HW 2.5 kt LCW
W.Rank290° ranks 12
Current wind is above 290° avg. (8.8)
Visibility9999 m
Phenomena:N/A
Clouds:N/A
Expected CloudBase > 3,600 ft AGL from Temp-Dew spread
CeilingNone
Temp29°C (ISA +16)
Dew Point20°C (58% RH)
Heat Index30.7°C
AAT28.3°C
QNH1007 hPa
Density Alt3,310 ft
Elevation971 ft
Report Wrong Elevation
Raw Report
YTEF 172000Z AUTO 29012KT 9999 // NCD 29/20 Q1007=

Extra information for YTEF:More info

Metar Taf Metar & Taf Last 4 Metars F.Rules Stats Wind Profile Meteogram Temp Stats Airport Information Weather charts Add Link Nearby VenuesMetar ALERT Operation Metar Decoded Social comments